Terminal Aerodrome Forecast
Issued by NWS

Home | Current Version | Previous Version | Text Only | Print | Product List | Glossary On
Versions: 1 2 3 4 5 6 7 8 9 10 11 12 13
000
FTUS45 KABQ 260544
TAFSAF
TAF
KSAF 260544Z 2606/2706 VRB06KT P6SM VCSH SCT090 BKN120
      TEMPO 2606/2609 VRB13G22KT -TSRA BKN060CB OVC100
     FM260900 03006KT P6SM VCSH BKN100
     FM261100 02007KT P6SM SCT100 SCT150
     FM262030 25009G16KT P6SM VCSH SCT090 BKN120 PROB30 2621/2703
      VRB18G29KT -TSRA BKN060CB BKN110=

USA.gov is the U.S. government's official web portal to all federal, state and local government web resources and services.